createdAt,value
2023-04-09T00:00:17.940Z,101469.19
2023-04-09T00:02:45.448Z,101471.22
2023-04-09T00:05:12.811Z,101467.78
2023-04-09T00:07:42.157Z,101473.91
2023-04-09T00:10:10.969Z,101468.41
2023-04-09T00:12:37.946Z,101470.38
2023-04-09T00:15:05.693Z,101470.38
2023-04-09T00:17:32.662Z,101468.25
2023-04-09T00:19:59.989Z,101469.91
2023-04-09T00:22:27.182Z,101471.63
2023-04-09T00:24:54.156Z,101469.75
2023-04-09T00:27:21.286Z,101469.66
2023-04-09T00:29:48.250Z,101474.94
2023-04-09T00:32:15.666Z,101467.78
2023-04-09T00:34:42.674Z,101479.44
2023-04-09T00:37:09.733Z,101480.38
2023-04-09T00:39:36.767Z,101470.78
2023-04-09T00:42:03.821Z,101475.25
2023-04-09T00:44:31.082Z,101470.06
2023-04-09T00:47:00.705Z,101476.38
2023-04-09T00:49:28.344Z,101471.22
2023-04-09T00:51:55.600Z,101468.09
2023-04-09T00:54:22.826Z,101473.28
2023-04-09T00:56:49.755Z,101474.19
2023-04-09T00:59:17.042Z,101478.94
2023-04-09T01:01:44.069Z,101480.75
2023-04-09T01:04:11.370Z,101483.41
2023-04-09T01:07:13.670Z,101481.75
2023-04-09T01:10:26.022Z,101478.50
2023-04-09T01:13:09.336Z,101485.78
2023-04-09T01:16:00.563Z,101495.78
2023-04-09T01:19:10.275Z,101494.97
2023-04-09T01:21:40.414Z,101495.97
2023-04-09T01:24:29.156Z,101499.75
2023-04-09T01:27:09.244Z,101491.97
2023-04-09T01:29:55.079Z,101490.28
2023-04-09T01:32:23.062Z,101495.78
2023-04-09T01:34:51.492Z,101498.38
2023-04-09T01:37:19.600Z,101495.94
2023-04-09T01:39:47.237Z,101498.59
2023-04-09T01:42:16.304Z,101503.16
2023-04-09T01:44:45.705Z,101501.41
2023-04-09T01:47:13.371Z,101502.44
2023-04-09T01:49:41.923Z,101498.22
2023-04-09T01:52:10.206Z,101505.47
2023-04-09T01:54:37.399Z,101510.09
2023-04-09T01:57:04.516Z,101509.28
2023-04-09T01:59:31.811Z,101505.81
2023-04-09T02:02:03.476Z,101508.66
2023-04-09T02:04:37.496Z,101510.44
2023-04-09T02:07:07.181Z,101506.97
2023-04-09T02:09:37.860Z,101507.13
2023-04-09T02:12:11.514Z,101515.00
2023-04-09T02:14:40.555Z,101508.06
2023-04-09T02:17:07.826Z,101516.13
2023-04-09T02:19:47.239Z,101519.03
2023-04-09T02:22:16.589Z,101523.44
2023-04-09T02:24:44.047Z,101523.56
2023-04-09T02:27:11.416Z,101518.34
2023-04-09T02:29:40.621Z,101513.09
2023-04-09T02:32:07.998Z,101526.50
2023-04-09T02:34:35.208Z,101527.50
2023-04-09T02:37:02.213Z,101527.44
2023-04-09T02:39:29.229Z,101527.50
2023-04-09T02:41:56.378Z,101523.03
2023-04-09T02:44:23.961Z,101523.97
2023-04-09T02:46:54.968Z,101519.56
2023-04-09T02:49:21.940Z,101515.25
2023-04-09T02:51:49.174Z,101523.25
2023-04-09T02:54:16.281Z,101525.06
2023-04-09T02:56:43.243Z,101518.91
2023-04-09T02:59:10.445Z,101520.84
2023-04-09T03:01:37.526Z,101520.00
2023-04-09T03:04:04.658Z,101522.75
2023-04-09T03:06:31.642Z,101513.78
2023-04-09T03:08:59.757Z,101514.72
2023-04-09T03:11:26.746Z,101513.91
2023-04-09T03:13:53.734Z,101510.38
2023-04-09T03:16:20.820Z,101510.53
2023-04-09T03:18:47.942Z,101515.13
2023-04-09T03:21:16.225Z,101506.41
2023-04-09T03:23:48.092Z,101512.78
2023-04-09T03:26:15.861Z,101515.44
2023-04-09T03:28:47.250Z,101513.69
2023-04-09T03:31:14.387Z,101516.25
2023-04-09T03:33:43.132Z,101517.13
2023-04-09T03:36:11.694Z,101509.19
2023-04-09T03:39:17.114Z,101513.59
2023-04-09T03:41:45.623Z,101514.59
2023-04-09T03:44:15.773Z,101520.88
2023-04-09T03:46:56.647Z,101523.69
2023-04-09T03:49:24.869Z,101527.28
2023-04-09T03:51:53.680Z,101530.81
2023-04-09T03:54:20.831Z,101523.69
2023-04-09T03:56:47.826Z,101512.13
2023-04-09T03:59:20.248Z,101513.94
2023-04-09T04:01:48.447Z,101511.19
2023-04-09T04:04:16.165Z,101515.72
2023-04-09T04:06:53.680Z,101520.28
2023-04-09T04:09:47.252Z,101522.13
2023-04-09T04:12:17.524Z,101516.78
2023-04-09T04:15:13.606Z,101517.88
2023-04-09T04:17:46.284Z,101525.88
2023-04-09T04:20:40.612Z,101515.34
2023-04-09T04:23:13.029Z,101519.81
2023-04-09T04:26:00.356Z,101524.16
2023-04-09T04:28:31.735Z,101525.88
2023-04-09T04:30:59.641Z,101526.81
2023-04-09T04:33:29.673Z,101525.00
2023-04-09T04:36:17.696Z,101529.50
2023-04-09T04:38:49.536Z,101529.41
2023-04-09T04:41:23.889Z,101528.59
2023-04-09T04:44:06.003Z,101528.47
2023-04-09T04:46:33.113Z,101530.13
2023-04-09T04:49:00.297Z,101535.34
2023-04-09T04:51:28.126Z,101535.28
2023-04-09T04:54:15.294Z,101537.97
2023-04-09T04:56:49.887Z,101548.81
2023-04-09T04:59:41.024Z,101550.56
2023-04-09T05:02:11.131Z,101555.03
2023-04-09T05:05:04.815Z,101552.31
2023-04-09T05:07:37.966Z,101561.25
2023-04-09T05:10:07.372Z,101559.38
2023-04-09T05:12:38.517Z,101569.19
2023-04-09T05:15:07.926Z,101562.91
2023-04-09T05:17:37.019Z,101567.38
2023-04-09T05:20:06.316Z,101575.38
2023-04-09T05:22:43.443Z,101569.25
2023-04-09T05:25:10.807Z,101570.16
2023-04-09T05:27:39.757Z,101571.97
2023-04-09T05:30:08.387Z,101572.06
2023-04-09T05:32:36.130Z,101581.84
2023-04-09T05:35:05.578Z,101580.97
2023-04-09T05:37:38.655Z,101588.97
2023-04-09T05:40:07.571Z,101581.06
2023-04-09T05:42:34.917Z,101578.31
2023-04-09T05:45:06.563Z,101584.50
2023-04-09T05:47:33.707Z,101574.78
2023-04-09T05:50:06.300Z,101571.25
2023-04-09T05:52:33.601Z,101578.44
2023-04-09T05:55:01.065Z,101580.25
2023-04-09T05:57:40.424Z,101584.72
2023-04-09T06:00:08.385Z,101586.53
2023-04-09T06:05:12.825Z,101588.97
2023-04-09T06:07:39.865Z,101588.84
2023-04-09T06:10:11.162Z,101595.19
2023-04-09T06:12:39.308Z,101606.53
2023-04-09T06:15:07.041Z,101610.16
2023-04-09T06:17:33.998Z,101612.56
2023-04-09T06:20:01.178Z,101622.09
2023-04-09T06:22:28.267Z,101617.34
2023-04-09T06:24:55.198Z,101616.50
2023-04-09T06:27:22.832Z,101627.63
2023-04-09T06:29:49.933Z,101629.91
2023-04-09T06:32:17.064Z,101627.00
2023-04-09T06:34:44.012Z,101628.38
2023-04-09T06:37:11.194Z,101628.06
2023-04-09T06:39:40.418Z,101628.94
2023-04-09T06:42:09.583Z,101629.66
2023-04-09T06:44:50.655Z,101631.22
2023-04-09T06:47:17.839Z,101632.59
2023-04-09T06:49:44.894Z,101636.78
2023-04-09T06:52:12.167Z,101630.59
2023-04-09T06:54:39.138Z,101638.38
2023-04-09T06:57:07.578Z,101633.78
2023-04-09T06:59:34.849Z,101646.25
2023-04-09T07:02:01.979Z,101647.66
2023-04-09T07:04:29.209Z,101655.31
2023-04-09T07:06:59.295Z,101654.09
2023-04-09T07:09:26.424Z,101655.50
2023-04-09T07:11:53.535Z,101653.28
2023-04-09T07:14:20.700Z,101658.09
2023-04-09T07:16:47.892Z,101655.00
2023-04-09T07:19:18.008Z,101653.25
2023-04-09T07:21:45.231Z,101653.75
2023-04-09T07:24:12.325Z,101652.53
2023-04-09T07:26:39.538Z,101652.31
2023-04-09T07:29:06.858Z,101658.69
2023-04-09T07:31:35.924Z,101655.72
2023-04-09T07:34:03.175Z,101655.19
2023-04-09T07:36:31.832Z,101652.56
2023-04-09T07:38:58.998Z,101652.94
2023-04-09T07:41:26.282Z,101662.38
2023-04-09T07:43:53.610Z,101661.94
2023-04-09T07:46:24.217Z,101660.53
2023-04-09T07:48:51.970Z,101665.50
2023-04-09T07:51:19.481Z,101661.44
2023-04-09T07:53:46.629Z,101664.56
2023-04-09T07:56:13.934Z,101668.75
2023-04-09T07:58:41.041Z,101674.03
2023-04-09T08:01:09.179Z,101681.84
2023-04-09T08:03:36.921Z,101677.19
2023-04-09T08:06:04.676Z,101673.19
2023-04-09T08:08:31.782Z,101678.00
2023-04-09T08:10:59.256Z,101675.19
2023-04-09T08:13:26.707Z,101671.22
2023-04-09T08:15:53.954Z,101674.28
2023-04-09T08:18:21.040Z,101671.13
2023-04-09T08:20:48.441Z,101679.84
2023-04-09T08:23:15.740Z,101670.78
2023-04-09T08:25:42.924Z,101673.31
2023-04-09T08:28:09.852Z,101668.47
2023-04-09T08:30:37.245Z,101668.84
2023-04-09T08:33:04.502Z,101675.66
2023-04-09T08:35:31.866Z,101676.19
2023-04-09T08:37:59.936Z,101676.13
2023-04-09T08:40:28.438Z,101669.38
2023-04-09T08:42:59.584Z,101679.13
2023-04-09T08:45:26.627Z,101674.13
2023-04-09T08:47:53.737Z,101670.00
2023-04-09T08:50:20.952Z,101675.03
2023-04-09T08:52:49.321Z,101682.72
2023-04-09T08:55:16.820Z,101679.59
2023-04-09T08:57:44.044Z,101680.13
2023-04-09T09:00:12.613Z,101681.69
2023-04-09T09:03:06.589Z,101689.38
2023-04-09T09:05:46.756Z,101690.00
2023-04-09T09:08:24.211Z,101685.06
2023-04-09T09:10:51.548Z,101692.00
2023-04-09T09:13:26.299Z,101680.59
2023-04-09T09:15:56.516Z,101682.03
2023-04-09T09:18:44.568Z,101684.97
2023-04-09T09:21:16.394Z,101694.56
2023-04-09T09:23:44.898Z,101690.75
2023-04-09T09:26:18.082Z,101694.66
2023-04-09T09:28:49.917Z,101692.47
2023-04-09T09:31:19.993Z,101694.56
2023-04-09T09:33:49.370Z,101691.72
2023-04-09T09:36:33.416Z,101680.59
2023-04-09T09:39:06.127Z,101688.97
2023-04-09T09:41:33.534Z,101682.38
2023-04-09T09:44:00.670Z,101692.94
2023-04-09T09:46:28.677Z,101686.13
2023-04-09T09:48:56.670Z,101684.38
2023-04-09T09:51:29.911Z,101679.19
2023-04-09T09:53:58.335Z,101678.34
2023-04-09T09:56:35.158Z,101670.56
2023-04-09T09:59:13.260Z,101664.81
2023-04-09T10:01:41.422Z,101659.44
2023-04-09T10:04:14.773Z,101660.03
2023-04-09T10:06:46.091Z,101659.06
2023-04-09T10:09:13.392Z,101659.28
2023-04-09T10:11:47.871Z,101654.25
2023-04-09T10:14:16.774Z,101646.56
2023-04-09T10:16:44.417Z,101642.50
2023-04-09T10:19:14.753Z,101647.88
2023-04-09T10:21:54.069Z,101646.97
2023-04-09T10:24:22.215Z,101643.34
2023-04-09T10:26:49.541Z,101648.28
2023-04-09T10:29:17.198Z,101641.56
2023-04-09T10:31:51.898Z,101642.69
2023-04-09T10:34:23.869Z,101648.28
2023-04-09T10:37:00.024Z,101636.59
2023-04-09T10:39:32.328Z,101635.19
2023-04-09T10:42:15.043Z,101641.53
2023-04-09T10:44:49.294Z,101636.78
2023-04-09T10:47:34.142Z,101629.50
2023-04-09T10:50:28.085Z,101640.25
2023-04-09T10:53:03.603Z,101625.50
2023-04-09T10:55:39.212Z,101632.16
2023-04-09T10:58:10.432Z,101624.41
2023-04-09T11:00:44.650Z,101625.94
2023-04-09T11:03:30.734Z,101619.44
2023-04-09T11:06:10.303Z,101616.44
2023-04-09T11:08:38.935Z,101598.41
2023-04-09T11:11:08.112Z,101607.72
2023-04-09T11:13:35.253Z,101613.09
2023-04-09T11:16:06.998Z,101610.50
2023-04-09T11:18:35.581Z,101606.16
2023-04-09T11:21:04.571Z,101611.13
2023-04-09T11:23:33.181Z,101604.25
2023-04-09T11:26:01.871Z,101609.75
2023-04-09T11:28:28.875Z,101604.88
2023-04-09T11:30:55.903Z,101609.34
2023-04-09T11:33:22.990Z,101599.50
2023-04-09T11:35:51.305Z,101599.28
2023-04-09T11:38:18.365Z,101583.84
2023-04-09T11:40:48.725Z,101587.75
2023-04-09T11:43:17.097Z,101587.06
2023-04-09T11:45:45.151Z,101590.91
2023-04-09T11:48:13.110Z,101583.88
2023-04-09T11:50:40.753Z,101588.03
2023-04-09T11:53:21.807Z,101583.59
2023-04-09T11:55:53.694Z,101590.03
2023-04-09T11:58:26.301Z,101576.06
2023-04-09T12:01:00.909Z,101572.94
2023-04-09T12:03:31.139Z,101573.28
2023-04-09T12:06:04.143Z,101572.53
2023-04-09T12:08:35.146Z,101568.16
2023-04-09T12:11:15.272Z,101570.22
2023-04-09T12:13:45.816Z,101568.44
2023-04-09T12:16:14.106Z,101569.97
2023-04-09T12:18:41.346Z,101568.84
2023-04-09T12:21:08.526Z,101562.09
2023-04-09T12:23:36.061Z,101568.13
2023-04-09T12:26:03.497Z,101564.94
2023-04-09T12:28:30.979Z,101558.25
2023-04-09T12:30:59.602Z,101561.81
2023-04-09T12:33:27.267Z,101555.63
2023-04-09T12:35:54.309Z,101552.53
2023-04-09T12:38:21.434Z,101557.13
2023-04-09T12:40:48.506Z,101559.97
2023-04-09T12:43:15.766Z,101552.59
2023-04-09T12:45:42.769Z,101548.72
2023-04-09T12:48:09.750Z,101557.25
2023-04-09T12:50:36.782Z,101553.94
2023-04-09T12:53:03.728Z,101556.50
2023-04-09T12:55:30.807Z,101553.94
2023-04-09T12:57:58.512Z,101546.03
2023-04-09T13:00:25.749Z,101541.31
2023-04-09T13:02:55.718Z,101546.69
2023-04-09T13:05:23.157Z,101542.56
2023-04-09T13:07:50.106Z,101536.00
2023-04-09T13:10:17.304Z,101528.91
2023-04-09T13:12:44.187Z,101530.72
2023-04-09T13:15:11.830Z,101528.19
2023-04-09T13:17:39.041Z,101524.19
2023-04-09T13:20:07.890Z,101516.41
2023-04-09T13:22:34.939Z,101516.94
2023-04-09T13:25:02.259Z,101508.84
2023-04-09T13:27:29.262Z,101510.16
2023-04-09T13:29:56.261Z,101505.09
2023-04-09T13:32:24.362Z,101494.56
2023-04-09T13:34:51.534Z,101495.31
2023-04-09T13:37:18.584Z,101495.34
2023-04-09T13:39:46.169Z,101486.47
2023-04-09T13:42:14.400Z,101484.06
2023-04-09T13:44:44.590Z,101478.41
2023-04-09T13:47:16.966Z,101474.56
2023-04-09T13:49:44.217Z,101472.41
2023-04-09T13:52:11.797Z,101467.41
2023-04-09T13:54:38.765Z,101463.88
2023-04-09T13:57:05.801Z,101461.72
2023-04-09T13:59:32.897Z,101458.41
2023-04-09T14:02:00.086Z,101449.97
2023-04-09T14:04:27.748Z,101441.88
2023-04-09T14:06:57.369Z,101443.81
2023-04-09T14:09:24.322Z,101440.84
2023-04-09T14:11:51.381Z,101448.47
2023-04-09T14:14:19.921Z,101440.94
2023-04-09T14:16:48.345Z,101436.88
2023-04-09T14:19:15.439Z,101429.69
2023-04-09T14:21:42.570Z,101438.00
2023-04-09T14:24:09.508Z,101439.09
2023-04-09T14:26:37.351Z,101442.13
2023-04-09T14:29:04.443Z,101433.34
2023-04-09T14:31:31.410Z,101437.97
2023-04-09T14:33:58.332Z,101434.50
2023-04-09T14:36:27.116Z,101434.81
2023-04-09T14:38:56.048Z,101442.84
2023-04-09T14:41:24.557Z,101432.38
2023-04-09T14:43:51.566Z,101436.81
2023-04-09T14:46:30.532Z,101431.84
2023-04-09T14:48:57.535Z,101425.41
2023-04-09T14:51:24.638Z,101429.88
2023-04-09T14:53:51.664Z,101428.88
2023-04-09T14:56:18.720Z,101432.59
2023-04-09T14:58:46.088Z,101432.59
2023-04-09T15:01:13.629Z,101426.84
2023-04-09T15:03:42.351Z,101425.78
2023-04-09T15:06:09.791Z,101425.03
2023-04-09T15:08:36.685Z,101420.53
2023-04-09T15:11:04.592Z,101417.84
2023-04-09T15:13:31.551Z,101422.13
2023-04-09T15:15:58.488Z,101412.81
2023-04-09T15:18:25.715Z,101413.41
2023-04-09T15:20:52.742Z,101401.56
2023-04-09T15:23:20.039Z,101418.69
2023-04-09T15:25:47.050Z,101411.81
2023-04-09T15:28:14.538Z,101409.13
2023-04-09T15:30:41.948Z,101405.81
2023-04-09T15:33:09.020Z,101411.06
2023-04-09T15:35:36.306Z,101408.38
2023-04-09T15:38:03.417Z,101407.66
2023-04-09T15:40:31.978Z,101408.63
2023-04-09T15:42:58.912Z,101406.19
2023-04-09T15:45:26.776Z,101414.72
2023-04-09T15:47:54.102Z,101409.81
2023-04-09T15:50:21.330Z,101407.16
2023-04-09T15:52:48.956Z,101406.81
2023-04-09T15:55:17.354Z,101410.50
2023-04-09T15:57:46.954Z,101399.94
2023-04-09T16:00:16.194Z,101405.34
2023-04-09T16:02:43.424Z,101402.88
2023-04-09T16:05:10.577Z,101403.50
2023-04-09T16:07:38.340Z,101406.97
2023-04-09T16:10:06.162Z,101416.75
2023-04-09T16:12:33.146Z,101409.22
2023-04-09T16:15:00.044Z,101419.09
2023-04-09T16:17:27.083Z,101419.34
2023-04-09T16:19:56.424Z,101420.31
2023-04-09T16:22:23.823Z,101421.19
2023-04-09T16:24:50.907Z,101426.84
2023-04-09T16:27:17.998Z,101426.34
2023-04-09T16:29:46.217Z,101426.63
2023-04-09T16:32:13.439Z,101425.75
2023-04-09T16:34:41.047Z,101425.03
2023-04-09T16:37:08.256Z,101418.63
2023-04-09T16:39:36.364Z,101416.78
2023-04-09T16:42:03.498Z,101419.47
2023-04-09T16:44:30.785Z,101418.00
2023-04-09T16:46:58.706Z,101419.34
2023-04-09T16:49:26.900Z,101420.47
2023-04-09T16:51:54.604Z,101421.84
2023-04-09T16:54:21.699Z,101429.44
2023-04-09T16:56:49.983Z,101426.03
2023-04-09T16:59:21.132Z,101417.28
2023-04-09T17:01:49.248Z,101418.75
2023-04-09T17:04:16.447Z,101429.03
2023-04-09T17:06:43.683Z,101421.91
2023-04-09T17:09:10.879Z,101430.38
2023-04-09T17:11:40.871Z,101434.41
2023-04-09T17:14:08.079Z,101439.09
2023-04-09T17:16:36.257Z,101442.06
2023-04-09T17:19:03.225Z,101445.09
2023-04-09T17:21:30.956Z,101449.03
2023-04-09T17:23:58.158Z,101444.72
2023-04-09T17:26:25.225Z,101456.00
2023-04-09T17:28:52.730Z,101452.91
2023-04-09T17:31:23.661Z,101464.06
2023-04-09T17:33:51.021Z,101466.16
2023-04-09T17:36:22.919Z,101470.03
2023-04-09T17:38:53.040Z,101461.31
2023-04-09T17:41:20.525Z,101465.47
2023-04-09T17:43:47.533Z,101470.38
2023-04-09T17:46:14.774Z,101472.41
2023-04-09T17:48:42.041Z,101467.50
2023-04-09T17:51:09.167Z,101475.06
2023-04-09T17:53:36.104Z,101487.19
2023-04-09T17:56:06.134Z,101484.81
2023-04-09T17:58:34.223Z,101491.97
2023-04-09T18:01:02.019Z,101502.03
2023-04-09T18:03:29.576Z,101504.72
2023-04-09T18:05:56.834Z,101510.66
2023-04-09T18:08:23.892Z,101518.97
2023-04-09T18:11:05.191Z,101517.47
2023-04-09T18:13:38.472Z,101519.97
2023-04-09T18:16:12.630Z,101513.94
2023-04-09T18:18:39.968Z,101524.31
2023-04-09T18:21:07.362Z,101536.31
2023-04-09T18:23:35.364Z,101534.78
2023-04-09T18:26:02.605Z,101543.19
2023-04-09T18:28:33.738Z,101555.91
2023-04-09T18:31:00.744Z,101554.53
2023-04-09T18:33:28.394Z,101557.66
2023-04-09T18:35:55.404Z,101562.50
2023-04-09T18:38:22.810Z,101560.00
2023-04-09T18:40:49.827Z,101565.59
2023-04-09T18:43:16.784Z,101573.06
2023-04-09T18:45:43.686Z,101574.31
2023-04-09T18:48:10.877Z,101588.03
2023-04-09T18:50:37.884Z,101588.03
2023-04-09T18:53:06.003Z,101582.75
2023-04-09T18:55:37.913Z,101593.59
2023-04-09T18:58:12.889Z,101596.59
2023-04-09T19:00:40.209Z,101601.53
2023-04-09T19:03:08.413Z,101610.34
2023-04-09T19:05:36.263Z,101616.81
2023-04-09T19:08:07.805Z,101619.69
2023-04-09T19:10:34.720Z,101630.69
2023-04-09T19:13:02.559Z,101636.19
2023-04-09T19:15:29.609Z,101641.75
2023-04-09T19:17:57.174Z,101646.56
2023-04-09T19:20:24.354Z,101646.13
2023-04-09T19:22:57.400Z,101648.25
2023-04-09T19:25:24.530Z,101652.09
2023-04-09T19:27:53.696Z,101658.84
2023-04-09T19:30:21.336Z,101665.69
2023-04-09T19:32:48.517Z,101672.34
2023-04-09T19:35:15.588Z,101684.03
2023-04-09T19:37:42.707Z,101685.22
2023-04-09T19:40:10.394Z,101679.03
2023-04-09T19:42:37.325Z,101684.72
2023-04-09T19:45:04.898Z,101688.47
2023-04-09T19:47:32.287Z,101692.63
2023-04-09T19:49:59.274Z,101693.69
2023-04-09T19:52:26.457Z,101697.22
2023-04-09T19:54:55.879Z,101699.06
2023-04-09T19:57:23.208Z,101697.56
2023-04-09T19:59:52.264Z,101692.38
2023-04-09T20:02:20.406Z,101704.38
2023-04-09T20:04:47.494Z,101703.81
2023-04-09T20:07:15.508Z,101702.16
2023-04-09T20:09:42.579Z,101704.19
2023-04-09T20:12:10.196Z,101703.28
2023-04-09T20:14:38.310Z,101712.50
2023-04-09T20:17:08.252Z,101709.03
2023-04-09T20:19:35.968Z,101711.22
2023-04-09T20:22:03.011Z,101715.16
2023-04-09T20:24:30.835Z,101731.06
2023-04-09T20:26:59.657Z,101727.28
2023-04-09T20:29:26.746Z,101734.53
2023-04-09T20:31:53.726Z,101722.25
2023-04-09T20:34:26.553Z,101724.84
2023-04-09T20:36:54.905Z,101727.63
2023-04-09T20:39:25.001Z,101726.75
2023-04-09T20:41:54.070Z,101731.28
2023-04-09T20:44:21.561Z,101736.66
2023-04-09T20:46:48.898Z,101740.09
2023-04-09T20:49:15.902Z,101741.13
2023-04-09T20:51:42.950Z,101737.75
2023-04-09T20:54:09.989Z,101741.22
2023-04-09T20:56:37.031Z,101745.63
2023-04-09T20:59:04.024Z,101745.72
2023-04-09T21:01:32.316Z,101746.88
2023-04-09T21:03:59.568Z,101753.75
2023-04-09T21:06:26.779Z,101759.72
2023-04-09T21:08:55.707Z,101764.56
2023-04-09T21:11:23.045Z,101767.59
2023-04-09T21:13:54.408Z,101775.00
2023-04-09T21:16:22.184Z,101767.81
2023-04-09T21:18:50.144Z,101773.28
2023-04-09T21:21:17.264Z,101777.28
2023-04-09T21:23:44.357Z,101772.22
2023-04-09T21:26:11.864Z,101768.06
2023-04-09T21:28:38.907Z,101778.63
2023-04-09T21:31:06.284Z,101774.13
2023-04-09T21:33:33.298Z,101779.09
2023-04-09T21:36:01.383Z,101775.03
2023-04-09T21:38:28.434Z,101786.31
2023-04-09T21:40:55.378Z,101790.19
2023-04-09T21:43:22.377Z,101782.47
2023-04-09T21:45:49.565Z,101776.28
2023-04-09T21:48:16.583Z,101786.31
2023-04-09T21:50:43.562Z,101794.84
2023-04-09T21:53:10.993Z,101785.38
2023-04-09T21:55:38.919Z,101787.81
2023-04-09T21:58:06.195Z,101790.19
2023-04-09T22:00:33.187Z,101796.72
2023-04-09T22:03:01.789Z,101797.34
2023-04-09T22:05:46.124Z,101793.97
2023-04-09T22:08:13.584Z,101793.09
2023-04-09T22:10:40.574Z,101801.16
2023-04-09T22:13:07.788Z,101797.06
2023-04-09T22:15:34.883Z,101796.22
2023-04-09T22:18:01.988Z,101798.19
2023-04-09T22:20:29.773Z,101801.72
2023-04-09T22:22:57.217Z,101795.56
2023-04-09T22:25:24.426Z,101801.63
2023-04-09T22:27:53.244Z,101801.63
2023-04-09T22:30:24.466Z,101800.91
2023-04-09T22:32:51.729Z,101799.19
2023-04-09T22:35:19.068Z,101805.50
2023-04-09T22:37:47.075Z,101798.38
2023-04-09T22:40:16.005Z,101795.72
2023-04-09T22:42:44.649Z,101804.56
2023-04-09T22:45:12.155Z,101802.88
2023-04-09T22:47:39.680Z,101800.09
2023-04-09T22:50:07.952Z,101803.81
2023-04-09T22:52:34.962Z,101807.41
2023-04-09T22:55:02.180Z,101809.47
2023-04-09T22:57:30.308Z,101819.47
2023-04-09T22:59:57.667Z,101816.97
2023-04-09T23:02:24.938Z,101817.06
2023-04-09T23:04:52.087Z,101827.34
2023-04-09T23:07:19.113Z,101830.50
2023-04-09T23:09:46.308Z,101835.72
2023-04-09T23:12:13.421Z,101839.56
2023-04-09T23:14:40.406Z,101839.50
2023-04-09T23:17:07.393Z,101840.44
2023-04-09T23:19:34.699Z,101836.88
2023-04-09T23:22:01.742Z,101840.59
2023-04-09T23:24:28.942Z,101837.13
2023-04-09T23:26:56.307Z,101835.38
2023-04-09T23:29:23.354Z,101835.59
2023-04-09T23:31:50.437Z,101834.00
2023-04-09T23:34:17.507Z,101832.31
2023-04-09T23:36:44.570Z,101832.56
2023-04-09T23:39:11.654Z,101832.91
2023-04-09T23:41:38.629Z,101826.94
2023-04-09T23:44:05.735Z,101825.44
2023-04-09T23:46:32.910Z,101839.75
2023-04-09T23:49:00.481Z,101833.66
2023-04-09T23:51:27.584Z,101835.69
2023-04-09T23:53:54.805Z,101829.41
2023-04-09T23:56:23.124Z,101831.25
2023-04-09T23:58:50.317Z,101827.09
